sensor_id;sensor_type;location;lat;lon;timestamp;P1;durP1;ratioP1;P2;durP2;ratioP2
74851;SDS011;63400;50.650;6.832;2023-02-23T00:01:14;30.88;;;12.77;;
74851;SDS011;63400;50.650;6.832;2023-02-23T00:03:42;30.13;;;13.05;;
74851;SDS011;63400;50.650;6.832;2023-02-23T00:06:08;32.97;;;13.30;;
74851;SDS011;63400;50.650;6.832;2023-02-23T00:08:34;29.90;;;12.93;;
74851;SDS011;63400;50.650;6.832;2023-02-23T00:11:04;30.33;;;12.32;;
74851;SDS011;63400;50.650;6.832;2023-02-23T00:13:33;61.40;;;18.50;;
74851;SDS011;63400;50.650;6.832;2023-02-23T00:16:20;31.10;;;12.70;;
74851;SDS011;63400;50.650;6.832;2023-02-23T00:18:48;34.90;;;13.63;;
74851;SDS011;63400;50.650;6.832;2023-02-23T00:21:22;58.33;;;18.17;;
74851;SDS011;63400;50.650;6.832;2023-02-23T00:24:03;30.30;;;14.05;;
74851;SDS011;63400;50.650;6.832;2023-02-23T00:26:31;34.83;;;14.40;;
74851;SDS011;63400;50.650;6.832;2023-02-23T00:29:02;29.60;;;12.80;;
74851;SDS011;63400;50.650;6.832;2023-02-23T00:31:30;30.27;;;12.82;;
74851;SDS011;63400;50.650;6.832;2023-02-23T00:33:57;29.48;;;13.32;;
74851;SDS011;63400;50.650;6.832;2023-02-23T00:38:51;30.10;;;12.25;;
74851;SDS011;63400;50.650;6.832;2023-02-23T00:41:18;37.90;;;14.43;;
74851;SDS011;63400;50.650;6.832;2023-02-23T00:43:50;32.38;;;13.18;;
74851;SDS011;63400;50.650;6.832;2023-02-23T00:46:19;50.90;;;16.35;;
74851;SDS011;63400;50.650;6.832;2023-02-23T00:48:49;32.95;;;14.18;;
74851;SDS011;63400;50.650;6.832;2023-02-23T00:51:19;59.92;;;19.48;;
74851;SDS011;63400;50.650;6.832;2023-02-23T00:53:44;32.47;;;12.80;;
74851;SDS011;63400;50.650;6.832;2023-02-23T00:56:14;43.97;;;16.17;;
74851;SDS011;63400;50.650;6.832;2023-02-23T00:58:40;31.48;;;13.10;;
74851;SDS011;63400;50.650;6.832;2023-02-23T01:01:10;32.95;;;13.82;;
74851;SDS011;63400;50.650;6.832;2023-02-23T01:03:38;30.60;;;13.10;;
74851;SDS011;63400;50.650;6.832;2023-02-23T01:06:11;37.58;;;14.68;;
74851;SDS011;63400;50.650;6.832;2023-02-23T01:08:39;26.33;;;12.52;;
74851;SDS011;63400;50.650;6.832;2023-02-23T01:11:13;29.20;;;13.32;;
74851;SDS011;63400;50.650;6.832;2023-02-23T01:13:45;27.38;;;13.18;;
74851;SDS011;63400;50.650;6.832;2023-02-23T01:16:16;33.88;;;12.75;;
74851;SDS011;63400;50.650;6.832;2023-02-23T01:18:43;28.05;;;11.93;;
74851;SDS011;63400;50.650;6.832;2023-02-23T01:21:13;28.92;;;12.43;;
74851;SDS011;63400;50.650;6.832;2023-02-23T01:23:43;25.55;;;11.48;;
74851;SDS011;63400;50.650;6.832;2023-02-23T01:26:16;29.77;;;11.57;;
74851;SDS011;63400;50.650;6.832;2023-02-23T01:28:53;32.30;;;12.20;;
74851;SDS011;63400;50.650;6.832;2023-02-23T01:31:20;47.97;;;16.98;;
74851;SDS011;63400;50.650;6.832;2023-02-23T01:33:46;26.00;;;12.35;;
74851;SDS011;63400;50.650;6.832;2023-02-23T01:36:12;46.35;;;14.45;;
74851;SDS011;63400;50.650;6.832;2023-02-23T01:38:40;27.40;;;12.02;;
74851;SDS011;63400;50.650;6.832;2023-02-23T01:41:05;29.80;;;11.75;;
74851;SDS011;63400;50.650;6.832;2023-02-23T01:43:31;28.95;;;12.10;;
74851;SDS011;63400;50.650;6.832;2023-02-23T01:46:01;32.25;;;12.85;;
74851;SDS011;63400;50.650;6.832;2023-02-23T01:48:28;29.35;;;12.85;;
74851;SDS011;63400;50.650;6.832;2023-02-23T01:51:03;30.52;;;12.25;;
74851;SDS011;63400;50.650;6.832;2023-02-23T01:53:32;31.17;;;11.77;;
74851;SDS011;63400;50.650;6.832;2023-02-23T01:56:00;33.92;;;12.38;;
74851;SDS011;63400;50.650;6.832;2023-02-23T01:58:29;35.75;;;13.75;;
74851;SDS011;63400;50.650;6.832;2023-02-23T02:00:58;31.90;;;12.27;;
74851;SDS011;63400;50.650;6.832;2023-02-23T02:03:29;35.92;;;12.90;;
74851;SDS011;63400;50.650;6.832;2023-02-23T02:05:59;29.20;;;12.63;;
74851;SDS011;63400;50.650;6.832;2023-02-23T02:10:51;27.42;;;11.38;;
74851;SDS011;63400;50.650;6.832;2023-02-23T02:13:25;49.47;;;15.05;;
74851;SDS011;63400;50.650;6.832;2023-02-23T02:18:27;48.70;;;14.52;;
74851;SDS011;63400;50.650;6.832;2023-02-23T02:26:48;23.70;;;9.38;;
74851;SDS011;63400;50.650;6.832;2023-02-23T02:35:20;25.55;;;10.82;;
74851;SDS011;63400;50.650;6.832;2023-02-23T02:41:12;26.23;;;10.15;;
74851;SDS011;63400;50.650;6.832;2023-02-23T02:51:16;41.75;;;12.50;;
74851;SDS011;63400;50.650;6.832;2023-02-23T02:53:57;23.75;;;9.23;;
74851;SDS011;63400;50.650;6.832;2023-02-23T02:58:53;27.20;;;10.37;;
74851;SDS011;63400;50.650;6.832;2023-02-23T03:01:19;36.00;;;12.27;;
74851;SDS011;63400;50.650;6.832;2023-02-23T03:04:18;22.45;;;9.32;;
74851;SDS011;63400;50.650;6.832;2023-02-23T03:07:06;27.00;;;10.38;;
74851;SDS011;63400;50.650;6.832;2023-02-23T03:21:48;24.40;;;9.90;;
74851;SDS011;63400;50.650;6.832;2023-02-23T03:24:40;25.20;;;9.65;;
74851;SDS011;63400;50.650;6.832;2023-02-23T03:27:30;22.98;;;9.30;;
74851;SDS011;63400;50.650;6.832;2023-02-23T03:30:19;33.40;;;10.55;;
74851;SDS011;63400;50.650;6.832;2023-02-23T03:33:09;20.45;;;8.65;;
74851;SDS011;63400;50.650;6.832;2023-02-23T03:39:02;25.30;;;9.27;;
74851;SDS011;63400;50.650;6.832;2023-02-23T03:41:53;25.83;;;11.70;;
74851;SDS011;63400;50.650;6.832;2023-02-23T03:44:39;28.20;;;12.70;;
74851;SDS011;63400;50.650;6.832;2023-02-23T03:47:24;47.25;;;17.88;;
74851;SDS011;63400;50.650;6.832;2023-02-23T03:50:12;39.60;;;16.35;;
74851;SDS011;63400;50.650;6.832;2023-02-23T03:53:00;37.65;;;16.73;;
74851;SDS011;63400;50.650;6.832;2023-02-23T03:55:47;34.35;;;16.10;;
74851;SDS011;63400;50.650;6.832;2023-02-23T03:58:36;38.08;;;17.60;;
74851;SDS011;63400;50.650;6.832;2023-02-23T04:01:23;56.70;;;22.15;;
74851;SDS011;63400;50.650;6.832;2023-02-23T04:04:08;36.10;;;16.98;;
74851;SDS011;63400;50.650;6.832;2023-02-23T04:06:53;36.70;;;18.90;;
74851;SDS011;63400;50.650;6.832;2023-02-23T04:09:39;38.30;;;18.85;;
74851;SDS011;63400;50.650;6.832;2023-02-23T04:20:25;51.30;;;20.20;;
74851;SDS011;63400;50.650;6.832;2023-02-23T04:22:51;38.08;;;17.88;;
74851;SDS011;63400;50.650;6.832;2023-02-23T04:25:16;49.95;;;21.60;;
74851;SDS011;63400;50.650;6.832;2023-02-23T04:27:46;44.22;;;18.60;;
74851;SDS011;63400;50.650;6.832;2023-02-23T04:30:11;50.80;;;20.98;;
74851;SDS011;63400;50.650;6.832;2023-02-23T04:32:37;39.55;;;17.67;;
74851;SDS011;63400;50.650;6.832;2023-02-23T04:35:02;41.28;;;19.80;;
74851;SDS011;63400;50.650;6.832;2023-02-23T04:37:28;42.42;;;18.88;;
74851;SDS011;63400;50.650;6.832;2023-02-23T04:39:53;35.40;;;17.58;;
74851;SDS011;63400;50.650;6.832;2023-02-23T04:42:19;61.33;;;24.20;;
74851;SDS011;63400;50.650;6.832;2023-02-23T04:44:47;46.80;;;18.85;;
74851;SDS011;63400;50.650;6.832;2023-02-23T04:47:13;53.17;;;21.73;;
74851;SDS011;63400;50.650;6.832;2023-02-23T04:49:39;46.13;;;20.20;;
74851;SDS011;63400;50.650;6.832;2023-02-23T04:52:05;39.10;;;20.08;;
74851;SDS011;63400;50.650;6.832;2023-02-23T04:54:30;42.80;;;18.98;;
74851;SDS011;63400;50.650;6.832;2023-02-23T04:56:56;41.85;;;20.23;;
74851;SDS011;63400;50.650;6.832;2023-02-23T04:59:21;63.67;;;24.13;;
74851;SDS011;63400;50.650;6.832;2023-02-23T05:01:49;44.42;;;19.88;;
74851;SDS011;63400;50.650;6.832;2023-02-23T05:04:15;54.47;;;20.77;;
74851;SDS011;63400;50.650;6.832;2023-02-23T05:06:40;39.85;;;18.83;;
74851;SDS011;63400;50.650;6.832;2023-02-23T05:09:06;44.38;;;18.90;;
74851;SDS011;63400;50.650;6.832;2023-02-23T05:11:32;41.38;;;19.05;;
74851;SDS011;63400;50.650;6.832;2023-02-23T05:14:00;46.63;;;20.35;;
74851;SDS011;63400;50.650;6.832;2023-02-23T05:16:26;54.75;;;21.08;;
74851;SDS011;63400;50.650;6.832;2023-02-23T05:18:52;40.03;;;18.60;;
74851;SDS011;63400;50.650;6.832;2023-02-23T05:21:17;60.50;;;22.02;;
74851;SDS011;63400;50.650;6.832;2023-02-23T05:23:43;42.33;;;19.63;;
74851;SDS011;63400;50.650;6.832;2023-02-23T05:26:10;47.15;;;20.63;;
74851;SDS011;63400;50.650;6.832;2023-02-23T05:28:36;43.97;;;20.23;;
74851;SDS011;63400;50.650;6.832;2023-02-23T05:31:03;43.47;;;19.92;;
74851;SDS011;63400;50.650;6.832;2023-02-23T05:33:29;46.00;;;20.00;;
74851;SDS011;63400;50.650;6.832;2023-02-23T05:35:58;46.17;;;19.85;;
74851;SDS011;63400;50.650;6.832;2023-02-23T05:38:24;70.88;;;25.23;;
74851;SDS011;63400;50.650;6.832;2023-02-23T05:40:50;42.55;;;18.92;;
74851;SDS011;63400;50.650;6.832;2023-02-23T05:43:15;54.08;;;21.25;;
74851;SDS011;63400;50.650;6.832;2023-02-23T05:45:41;41.95;;;18.30;;
74851;SDS011;63400;50.650;6.832;2023-02-23T05:48:08;43.88;;;19.23;;
74851;SDS011;63400;50.650;6.832;2023-02-23T05:50:33;42.08;;;18.77;;
74851;SDS011;63400;50.650;6.832;2023-02-23T05:52:59;44.30;;;18.27;;
74851;SDS011;63400;50.650;6.832;2023-02-23T05:55:24;60.25;;;21.85;;
74851;SDS011;63400;50.650;6.832;2023-02-23T05:57:50;43.10;;;18.10;;
74851;SDS011;63400;50.650;6.832;2023-02-23T06:00:15;48.70;;;18.25;;
74851;SDS011;63400;50.650;6.832;2023-02-23T06:02:42;45.00;;;16.83;;
74851;SDS011;63400;50.650;6.832;2023-02-23T06:05:08;41.38;;;16.45;;
74851;SDS011;63400;50.650;6.832;2023-02-23T06:07:34;42.47;;;18.17;;
74851;SDS011;63400;50.650;6.832;2023-02-23T06:09:59;40.13;;;16.45;;
74851;SDS011;63400;50.650;6.832;2023-02-23T06:12:24;53.22;;;20.50;;
74851;SDS011;63400;50.650;6.832;2023-02-23T06:14:50;42.80;;;18.73;;
74851;SDS011;63400;50.650;6.832;2023-02-23T06:17:16;62.78;;;22.45;;
74851;SDS011;63400;50.650;6.832;2023-02-23T06:19:42;43.35;;;16.30;;
74851;SDS011;63400;50.650;6.832;2023-02-23T06:22:07;38.53;;;16.17;;
74851;SDS011;63400;50.650;6.832;2023-02-23T06:24:33;39.33;;;16.45;;
74851;SDS011;63400;50.650;6.832;2023-02-23T06:26:58;40.80;;;16.02;;
74851;SDS011;63400;50.650;6.832;2023-02-23T06:29:24;48.33;;;17.80;;
74851;SDS011;63400;50.650;6.832;2023-02-23T06:31:49;43.65;;;17.77;;
74851;SDS011;63400;50.650;6.832;2023-02-23T06:34:15;38.03;;;17.02;;
74851;SDS011;63400;50.650;6.832;2023-02-23T06:36:40;32.78;;;15.02;;
74851;SDS011;63400;50.650;6.832;2023-02-23T06:39:06;35.67;;;17.40;;
74851;SDS011;63400;50.650;6.832;2023-02-23T06:41:31;38.55;;;15.85;;
74851;SDS011;63400;50.650;6.832;2023-02-23T06:43:57;40.40;;;17.25;;
74851;SDS011;63400;50.650;6.832;2023-02-23T06:46:23;46.80;;;18.55;;
74851;SDS011;63400;50.650;6.832;2023-02-23T06:48:48;34.83;;;17.00;;
74851;SDS011;63400;50.650;6.832;2023-02-23T06:51:14;44.67;;;16.48;;
74851;SDS011;63400;50.650;6.832;2023-02-23T06:53:39;31.60;;;14.48;;
74851;SDS011;63400;50.650;6.832;2023-02-23T06:56:05;33.05;;;14.73;;
74851;SDS011;63400;50.650;6.832;2023-02-23T06:58:30;36.50;;;16.13;;
74851;SDS011;63400;50.650;6.832;2023-02-23T07:00:56;34.97;;;14.35;;
74851;SDS011;63400;50.650;6.832;2023-02-23T07:03:23;47.75;;;18.20;;
74851;SDS011;63400;50.650;6.832;2023-02-23T07:05:49;37.00;;;15.73;;
74851;SDS011;63400;50.650;6.832;2023-02-23T07:08:15;47.90;;;17.70;;
74851;SDS011;63400;50.650;6.832;2023-02-23T07:10:42;36.92;;;15.80;;
74851;SDS011;63400;50.650;6.832;2023-02-23T07:13:08;36.95;;;15.55;;
74851;SDS011;63400;50.650;6.832;2023-02-23T07:15:34;39.92;;;15.82;;
74851;SDS011;63400;50.650;6.832;2023-02-23T07:18:00;38.90;;;15.10;;
74851;SDS011;63400;50.650;6.832;2023-02-23T07:20:26;43.85;;;16.65;;
74851;SDS011;63400;50.650;6.832;2023-02-23T07:22:51;34.55;;;16.13;;
74851;SDS011;63400;50.650;6.832;2023-02-23T07:25:16;47.25;;;18.20;;
74851;SDS011;63400;50.650;6.832;2023-02-23T07:27:42;37.50;;;15.30;;
74851;SDS011;63400;50.650;6.832;2023-02-23T07:30:09;35.95;;;15.45;;
74851;SDS011;63400;50.650;6.832;2023-02-23T07:32:35;35.20;;;16.58;;
74851;SDS011;63400;50.650;6.832;2023-02-23T07:35:01;35.33;;;15.50;;
74851;SDS011;63400;50.650;6.832;2023-02-23T07:37:27;50.17;;;18.15;;
74851;SDS011;63400;50.650;6.832;2023-02-23T07:39:52;40.42;;;16.00;;
74851;SDS011;63400;50.650;6.832;2023-02-23T07:42:18;35.70;;;14.65;;
74851;SDS011;63400;50.650;6.832;2023-02-23T07:44:43;51.22;;;18.90;;
74851;SDS011;63400;50.650;6.832;2023-02-23T07:47:09;36.70;;;15.82;;
74851;SDS011;63400;50.650;6.832;2023-02-23T07:49:35;36.58;;;15.60;;
74851;SDS011;63400;50.650;6.832;2023-02-23T07:52:01;37.30;;;15.05;;
74851;SDS011;63400;50.650;6.832;2023-02-23T07:54:30;39.10;;;15.48;;
74851;SDS011;63400;50.650;6.832;2023-02-23T07:56:58;36.05;;;16.42;;
74851;SDS011;63400;50.650;6.832;2023-02-23T07:59:24;37.05;;;15.68;;
74851;SDS011;63400;50.650;6.832;2023-02-23T08:01:49;39.38;;;15.73;;
74851;SDS011;63400;50.650;6.832;2023-02-23T08:04:16;42.53;;;16.20;;
74851;SDS011;63400;50.650;6.832;2023-02-23T08:06:42;63.90;;;20.90;;
74851;SDS011;63400;50.650;6.832;2023-02-23T08:09:07;44.42;;;16.10;;
74851;SDS011;63400;50.650;6.832;2023-02-23T08:11:32;51.95;;;19.30;;
74851;SDS011;63400;50.650;6.832;2023-02-23T08:13:58;40.38;;;17.25;;
74851;SDS011;63400;50.650;6.832;2023-02-23T08:16:27;38.08;;;15.95;;
74851;SDS011;63400;50.650;6.832;2023-02-23T08:18:55;33.97;;;14.93;;
74851;SDS011;63400;50.650;6.832;2023-02-23T08:21:22;33.53;;;14.63;;
74851;SDS011;63400;50.650;6.832;2023-02-23T08:23:48;33.38;;;14.95;;
74851;SDS011;63400;50.650;6.832;2023-02-23T08:26:13;34.00;;;15.52;;
74851;SDS011;63400;50.650;6.832;2023-02-23T08:28:39;46.65;;;15.65;;
74851;SDS011;63400;50.650;6.832;2023-02-23T08:31:08;27.27;;;12.30;;
74851;SDS011;63400;50.650;6.832;2023-02-23T08:33:34;42.60;;;15.95;;
74851;SDS011;63400;50.650;6.832;2023-02-23T08:36:00;34.28;;;14.32;;
74851;SDS011;63400;50.650;6.832;2023-02-23T08:38:26;31.35;;;13.10;;
74851;SDS011;63400;50.650;6.832;2023-02-23T08:40:52;32.08;;;15.20;;
74851;SDS011;63400;50.650;6.832;2023-02-23T08:43:18;40.40;;;14.63;;
74851;SDS011;63400;50.650;6.832;2023-02-23T08:45:44;42.85;;;14.23;;
74851;SDS011;63400;50.650;6.832;2023-02-23T08:48:10;45.33;;;13.77;;
74851;SDS011;63400;50.650;6.832;2023-02-23T08:50:35;52.05;;;16.10;;
74851;SDS011;63400;50.650;6.832;2023-02-23T08:53:01;29.10;;;11.43;;
74851;SDS011;63400;50.650;6.832;2023-02-23T08:55:26;33.03;;;14.07;;
74851;SDS011;63400;50.650;6.832;2023-02-23T08:57:52;38.42;;;14.65;;
74851;SDS011;63400;50.650;6.832;2023-02-23T09:00:20;29.75;;;13.15;;
74851;SDS011;63400;50.650;6.832;2023-02-23T09:02:49;28.02;;;11.05;;
74851;SDS011;63400;50.650;6.832;2023-02-23T09:05:15;26.13;;;11.13;;
74851;SDS011;63400;50.650;6.832;2023-02-23T09:07:40;32.63;;;11.77;;
74851;SDS011;63400;50.650;6.832;2023-02-23T09:10:13;26.02;;;10.60;;
74851;SDS011;63400;50.650;6.832;2023-02-23T09:12:40;55.13;;;16.20;;
74851;SDS011;63400;50.650;6.832;2023-02-23T09:15:06;24.48;;;11.20;;
74851;SDS011;63400;50.650;6.832;2023-02-23T09:17:32;45.97;;;15.07;;
74851;SDS011;63400;50.650;6.832;2023-02-23T09:19:57;21.67;;;10.18;;
74851;SDS011;63400;50.650;6.832;2023-02-23T09:22:26;28.08;;;11.32;;
74851;SDS011;63400;50.650;6.832;2023-02-23T09:24:54;33.97;;;12.88;;
74851;SDS011;63400;50.650;6.832;2023-02-23T09:27:19;26.02;;;11.43;;
74851;SDS011;63400;50.650;6.832;2023-02-23T09:29:45;54.35;;;16.77;;
74851;SDS011;63400;50.650;6.832;2023-02-23T09:32:14;24.35;;;11.07;;
74851;SDS011;63400;50.650;6.832;2023-02-23T09:34:39;38.17;;;13.15;;
74851;SDS011;63400;50.650;6.832;2023-02-23T09:37:08;27.85;;;10.45;;
74851;SDS011;63400;50.650;6.832;2023-02-23T09:39:33;36.03;;;12.25;;
74851;SDS011;63400;50.650;6.832;2023-02-23T09:42:02;24.42;;;10.02;;
74851;SDS011;63400;50.650;6.832;2023-02-23T09:44:56;26.05;;;10.90;;
74851;SDS011;63400;50.650;6.832;2023-02-23T09:47:50;27.45;;;10.52;;
74851;SDS011;63400;50.650;6.832;2023-02-23T09:50:24;23.83;;;10.10;;
74851;SDS011;63400;50.650;6.832;2023-02-23T09:52:53;25.63;;;10.13;;
74851;SDS011;63400;50.650;6.832;2023-02-23T09:55:22;22.40;;;10.05;;
74851;SDS011;63400;50.650;6.832;2023-02-23T09:57:53;24.00;;;10.48;;
74851;SDS011;63400;50.650;6.832;2023-02-23T10:00:22;22.02;;;9.48;;
74851;SDS011;63400;50.650;6.832;2023-02-23T10:05:29;23.65;;;10.07;;
74851;SDS011;63400;50.650;6.832;2023-02-23T10:08:03;40.10;;;13.00;;
74851;SDS011;63400;50.650;6.832;2023-02-23T10:19:31;19.75;;;9.02;;
74851;SDS011;63400;50.650;6.832;2023-02-23T10:21:34;23.65;;;9.48;;
74851;SDS011;63400;50.650;6.832;2023-02-23T10:24:04;22.83;;;10.70;;
74851;SDS011;63400;50.650;6.832;2023-02-23T10:26:35;36.97;;;14.38;;
74851;SDS011;63400;50.650;6.832;2023-02-23T10:29:06;25.85;;;12.65;;
74851;SDS011;63400;50.650;6.832;2023-02-23T10:31:44;60.40;;;18.48;;
74851;SDS011;63400;50.650;6.832;2023-02-23T10:34:15;28.38;;;12.77;;
74851;SDS011;63400;50.650;6.832;2023-02-23T10:36:49;57.80;;;19.83;;
74851;SDS011;63400;50.650;6.832;2023-02-23T10:39:17;28.00;;;12.20;;
74851;SDS011;63400;50.650;6.832;2023-02-23T10:41:44;55.88;;;19.65;;
74851;SDS011;63400;50.650;6.832;2023-02-23T10:44:20;27.92;;;11.88;;
74851;SDS011;63400;50.650;6.832;2023-02-23T10:46:52;27.30;;;12.60;;
74851;SDS011;63400;50.650;6.832;2023-02-23T10:49:20;27.58;;;11.85;;
74851;SDS011;63400;50.650;6.832;2023-02-23T10:51:47;32.30;;;12.50;;
74851;SDS011;63400;50.650;6.832;2023-02-23T10:56:58;28.38;;;12.32;;
74851;SDS011;63400;50.650;6.832;2023-02-23T10:59:23;29.48;;;12.13;;
74851;SDS011;63400;50.650;6.832;2023-02-23T11:01:49;30.42;;;12.15;;
74851;SDS011;63400;50.650;6.832;2023-02-23T11:04:23;30.55;;;12.50;;
74851;SDS011;63400;50.650;6.832;2023-02-23T11:07:07;26.77;;;11.82;;
74851;SDS011;63400;50.650;6.832;2023-02-23T11:09:37;39.25;;;13.93;;
74851;SDS011;63400;50.650;6.832;2023-02-23T11:14:50;51.30;;;15.60;;
74851;SDS011;63400;50.650;6.832;2023-02-23T11:17:25;28.58;;;11.77;;
74851;SDS011;63400;50.650;6.832;2023-02-23T11:22:41;54.38;;;18.40;;
74851;SDS011;63400;50.650;6.832;2023-02-23T11:25:14;27.35;;;10.45;;
74851;SDS011;63400;50.650;6.832;2023-02-23T11:27:46;45.00;;;15.50;;
74851;SDS011;63400;50.650;6.832;2023-02-23T11:30:15;27.80;;;11.43;;
74851;SDS011;63400;50.650;6.832;2023-02-23T11:32:45;47.10;;;16.58;;
74851;SDS011;63400;50.650;6.832;2023-02-23T11:37:44;46.70;;;15.32;;
74851;SDS011;63400;50.650;6.832;2023-02-23T11:40:23;27.35;;;11.55;;
74851;SDS011;63400;50.650;6.832;2023-02-23T11:45:48;34.28;;;12.18;;
74851;SDS011;63400;50.650;6.832;2023-02-23T11:48:24;29.48;;;12.27;;
74851;SDS011;63400;50.650;6.832;2023-02-23T11:50:58;24.33;;;10.20;;
74851;SDS011;63400;50.650;6.832;2023-02-23T11:56:00;29.73;;;11.40;;
74851;SDS011;63400;50.650;6.832;2023-02-23T12:09:56;23.30;;;11.00;;
74851;SDS011;63400;50.650;6.832;2023-02-23T12:12:25;25.02;;;10.95;;
74851;SDS011;63400;50.650;6.832;2023-02-23T12:15:01;26.40;;;10.57;;
74851;SDS011;63400;50.650;6.832;2023-02-23T12:17:35;40.30;;;13.35;;
74851;SDS011;63400;50.650;6.832;2023-02-23T12:22:45;42.70;;;14.98;;
74851;SDS011;63400;50.650;6.832;2023-02-23T12:31:38;25.42;;;11.10;;
74851;SDS011;63400;50.650;6.832;2023-02-23T12:34:07;27.67;;;10.90;;
74851;SDS011;63400;50.650;6.832;2023-02-23T12:39:23;24.58;;;11.00;;
74851;SDS011;63400;50.650;6.832;2023-02-23T12:42:12;25.30;;;9.93;;
74851;SDS011;63400;50.650;6.832;2023-02-23T12:44:55;41.60;;;13.65;;
74851;SDS011;63400;50.650;6.832;2023-02-23T12:50:18;19.67;;;9.85;;
74851;SDS011;63400;50.650;6.832;2023-02-23T12:52:47;51.88;;;16.83;;
74851;SDS011;63400;50.650;6.832;2023-02-23T12:58:21;25.52;;;10.68;;
74851;SDS011;63400;50.650;6.832;2023-02-23T13:00:51;23.67;;;9.88;;
74851;SDS011;63400;50.650;6.832;2023-02-23T13:12:12;20.90;;;9.80;;
74851;SDS011;63400;50.650;6.832;2023-02-23T13:18:13;22.38;;;9.95;;
74851;SDS011;63400;50.650;6.832;2023-02-23T13:31:38;22.95;;;8.70;;
74851;SDS011;63400;50.650;6.832;2023-02-23T13:34:05;21.20;;;7.30;;
74851;SDS011;63400;50.650;6.832;2023-02-23T13:36:34;39.25;;;10.82;;
74851;SDS011;63400;50.650;6.832;2023-02-23T13:41:42;26.27;;;8.18;;
74851;SDS011;63400;50.650;6.832;2023-02-23T13:49:29;19.48;;;8.10;;
74851;SDS011;63400;50.650;6.832;2023-02-23T13:51:58;20.77;;;7.15;;
74851;SDS011;63400;50.650;6.832;2023-02-23T13:54:31;29.90;;;9.05;;
74851;SDS011;63400;50.650;6.832;2023-02-23T13:56:58;22.55;;;7.88;;
74851;SDS011;63400;50.650;6.832;2023-02-23T13:59:29;23.95;;;7.80;;
74851;SDS011;63400;50.650;6.832;2023-02-23T14:02:05;31.52;;;10.45;;
74851;SDS011;63400;50.650;6.832;2023-02-23T14:05:03;31.30;;;9.85;;
74851;SDS011;63400;50.650;6.832;2023-02-23T14:07:52;30.17;;;9.70;;
74851;SDS011;63400;50.650;6.832;2023-02-23T14:10:26;29.25;;;10.10;;
74851;SDS011;63400;50.650;6.832;2023-02-23T14:25:45;52.87;;;15.20;;
74851;SDS011;63400;50.650;6.832;2023-02-23T14:28:23;30.17;;;10.23;;
74851;SDS011;63400;50.650;6.832;2023-02-23T14:33:35;32.08;;;10.73;;
74851;SDS011;63400;50.650;6.832;2023-02-23T14:41:46;35.83;;;11.93;;
74851;SDS011;63400;50.650;6.832;2023-02-23T14:46:49;42.35;;;11.75;;
74851;SDS011;63400;50.650;6.832;2023-02-23T14:49:20;33.08;;;10.30;;
74851;SDS011;63400;50.650;6.832;2023-02-23T14:51:47;40.83;;;12.45;;
74851;SDS011;63400;50.650;6.832;2023-02-23T14:54:21;29.60;;;11.07;;
74851;SDS011;63400;50.650;6.832;2023-02-23T14:56:50;28.10;;;10.13;;
74851;SDS011;63400;50.650;6.832;2023-02-23T14:59:18;26.08;;;9.10;;
74851;SDS011;63400;50.650;6.832;2023-02-23T15:01:45;41.30;;;12.20;;
74851;SDS011;63400;50.650;6.832;2023-02-23T15:04:12;27.00;;;10.02;;
74851;SDS011;63400;50.650;6.832;2023-02-23T15:06:40;41.83;;;12.93;;
74851;SDS011;63400;50.650;6.832;2023-02-23T15:09:06;27.50;;;9.75;;
74851;SDS011;63400;50.650;6.832;2023-02-23T15:11:33;42.80;;;12.32;;
74851;SDS011;63400;50.650;6.832;2023-02-23T15:14:01;29.92;;;9.35;;
74851;SDS011;63400;50.650;6.832;2023-02-23T15:16:30;30.50;;;10.48;;
74851;SDS011;63400;50.650;6.832;2023-02-23T15:21:57;29.80;;;9.50;;
74851;SDS011;63400;50.650;6.832;2023-02-23T15:24:24;28.83;;;9.32;;
74851;SDS011;63400;50.650;6.832;2023-02-23T15:26:52;27.63;;;9.32;;
74851;SDS011;63400;50.650;6.832;2023-02-23T15:29:29;26.77;;;9.57;;
74851;SDS011;63400;50.650;6.832;2023-02-23T15:32:09;27.52;;;9.20;;
74851;SDS011;63400;50.650;6.832;2023-02-23T15:34:41;48.85;;;14.70;;
74851;SDS011;63400;50.650;6.832;2023-02-23T15:37:10;26.35;;;10.30;;
74851;SDS011;63400;50.650;6.832;2023-02-23T15:42:34;28.77;;;9.80;;
74851;SDS011;63400;50.650;6.832;2023-02-23T15:48:05;24.33;;;8.73;;
74851;SDS011;63400;50.650;6.832;2023-02-23T15:50:33;37.13;;;11.00;;
74851;SDS011;63400;50.650;6.832;2023-02-23T15:53:11;25.35;;;8.88;;
74851;SDS011;63400;50.650;6.832;2023-02-23T15:56:02;23.38;;;9.02;;
74851;SDS011;63400;50.650;6.832;2023-02-23T15:58:30;23.83;;;8.85;;
74851;SDS011;63400;50.650;6.832;2023-02-23T16:01:14;26.23;;;9.32;;
74851;SDS011;63400;50.650;6.832;2023-02-23T16:04:37;25.35;;;8.88;;
74851;SDS011;63400;50.650;6.832;2023-02-23T16:06:52;37.85;;;10.65;;
74851;SDS011;63400;50.650;6.832;2023-02-23T16:15:03;27.02;;;9.65;;
74851;SDS011;63400;50.650;6.832;2023-02-23T16:17:43;30.10;;;9.88;;
74851;SDS011;63400;50.650;6.832;2023-02-23T16:20:18;23.92;;;8.75;;
74851;SDS011;63400;50.650;6.832;2023-02-23T16:22:59;26.27;;;10.10;;
74851;SDS011;63400;50.650;6.832;2023-02-23T16:27:58;24.75;;;9.73;;
74851;SDS011;63400;50.650;6.832;2023-02-23T16:38:38;41.78;;;12.05;;
74851;SDS011;63400;50.650;6.832;2023-02-23T16:41:18;21.23;;;7.72;;
74851;SDS011;63400;50.650;6.832;2023-02-23T16:43:49;32.70;;;10.00;;
74851;SDS011;63400;50.650;6.832;2023-02-23T16:46:16;23.38;;;9.05;;
74851;SDS011;63400;50.650;6.832;2023-02-23T16:48:43;36.17;;;11.75;;
74851;SDS011;63400;50.650;6.832;2023-02-23T16:51:12;27.60;;;9.02;;
74851;SDS011;63400;50.650;6.832;2023-02-23T16:53:38;33.20;;;10.23;;
74851;SDS011;63400;50.650;6.832;2023-02-23T16:56:04;24.27;;;8.93;;
74851;SDS011;63400;50.650;6.832;2023-02-23T16:58:36;37.58;;;11.00;;
74851;SDS011;63400;50.650;6.832;2023-02-23T17:01:02;28.27;;;11.38;;
74851;SDS011;63400;50.650;6.832;2023-02-23T17:03:28;29.45;;;10.70;;
74851;SDS011;63400;50.650;6.832;2023-02-23T17:05:54;31.35;;;11.48;;
74851;SDS011;63400;50.650;6.832;2023-02-23T17:08:20;34.22;;;11.43;;
74851;SDS011;63400;50.650;6.832;2023-02-23T17:10:47;41.58;;;13.52;;
74851;SDS011;63400;50.650;6.832;2023-02-23T17:13:16;33.97;;;11.82;;
74851;SDS011;63400;50.650;6.832;2023-02-23T17:15:43;45.38;;;15.00;;
74851;SDS011;63400;50.650;6.832;2023-02-23T17:18:12;28.27;;;9.18;;
74851;SDS011;63400;50.650;6.832;2023-02-23T17:20:38;39.35;;;11.43;;
74851;SDS011;63400;50.650;6.832;2023-02-23T17:23:04;29.52;;;9.07;;
74851;SDS011;63400;50.650;6.832;2023-02-23T17:25:30;25.13;;;9.18;;
74851;SDS011;63400;50.650;6.832;2023-02-23T17:27:56;27.77;;;9.82;;
74851;SDS011;63400;50.650;6.832;2023-02-23T17:33:26;26.52;;;8.38;;
74851;SDS011;63400;50.650;6.832;2023-02-23T17:35:53;28.98;;;9.02;;
74851;SDS011;63400;50.650;6.832;2023-02-23T17:38:18;24.65;;;9.35;;
74851;SDS011;63400;50.650;6.832;2023-02-23T17:40:46;40.97;;;11.95;;
74851;SDS011;63400;50.650;6.832;2023-02-23T17:43:11;29.58;;;9.82;;
74851;SDS011;63400;50.650;6.832;2023-02-23T17:45:37;40.70;;;12.27;;
74851;SDS011;63400;50.650;6.832;2023-02-23T17:48:03;28.77;;;9.75;;
74851;SDS011;63400;50.650;6.832;2023-02-23T17:50:29;30.33;;;10.50;;
74851;SDS011;63400;50.650;6.832;2023-02-23T17:52:54;27.85;;;10.05;;
74851;SDS011;63400;50.650;6.832;2023-02-23T17:55:21;29.10;;;10.68;;